Time;durP1;ratioP1;P1;durP2;ratioP2;P2;SDS_P1;SDS_P2;PMS_P1;PMS_P2;Temp;Humidity;BMP_temperature;BMP_pressure;BME280_temperature;BME280_humidity;BME280_pressure;Samples;Min_cycle;Max_cycle;Signal;HPM_P1;HPM_P2
2022/03/08 00:02:14;;;;;;;25.15;16.50;;;;;;;;;;5036834;28;20104;-65
2022/03/08 00:04:40;;;;;;;25.77;18.05;;;;;;;;;;5036670;28;20033;-64
2022/03/08 00:07:07;;;;;;;29.50;19.25;;;;;;;;;;5036049;28;20037;-65
2022/03/08 00:09:32;;;;;;;28.88;18.80;;;;;;;;;;5033043;28;20465;-65
2022/03/08 00:11:58;;;;;;;32.25;17.95;;;;;;;;;;5033692;28;20132;-65
2022/03/08 00:14:24;;;;;;;31.67;18.60;;;;;;;;;;5030197;28;20196;-63
2022/03/08 00:16:50;;;;;;;34.22;18.00;;;;;;;;;;5031702;28;20029;-65
2022/03/08 00:19:16;;;;;;;30.85;19.13;;;;;;;;;;5031622;28;20034;-65
2022/03/08 00:21:42;;;;;;;30.42;18.55;;;;;;;;;;5032989;28;20025;-64
2022/03/08 00:24:08;;;;;;;25.25;18.20;;;;;;;;;;5033531;28;20030;-65
2022/03/08 00:26:34;;;;;;;28.83;18.77;;;;;;;;;;5031594;28;20115;-65
2022/03/08 00:29:00;;;;;;;27.33;18.05;;;;;;;;;;5031138;28;20049;-64
2022/03/08 00:31:26;;;;;;;28.15;18.30;;;;;;;;;;5029569;28;20030;-65
2022/03/08 00:33:52;;;;;;;24.45;16.95;;;;;;;;;;5039269;28;20565;-65
2022/03/08 00:36:18;;;;;;;30.83;18.95;;;;;;;;;;5032335;28;20402;-63
2022/03/08 00:38:44;;;;;;;30.73;17.75;;;;;;;;;;5035521;28;20428;-64
2022/03/08 00:41:10;;;;;;;27.15;17.20;;;;;;;;;;5031564;28;20033;-65
2022/03/08 00:43:36;;;;;;;31.45;16.88;;;;;;;;;;5033497;28;20079;-65
2022/03/08 00:46:02;;;;;;;27.00;16.92;;;;;;;;;;5029915;28;20029;-64
2022/03/08 00:48:28;;;;;;;25.40;15.85;;;;;;;;;;5033060;28;20037;-65
2022/03/08 00:50:54;;;;;;;25.95;17.42;;;;;;;;;;5029238;28;20090;-64
2022/03/08 00:53:19;;;;;;;29.90;17.42;;;;;;;;;;5038072;28;20029;-64
2022/03/08 00:55:45;;;;;;;27.55;16.83;;;;;;;;;;5033352;28;20513;-64
2022/03/08 00:58:11;;;;;;;26.60;17.10;;;;;;;;;;5030935;28;20080;-65
2022/03/08 01:00:39;;;;;;;25.85;16.42;;;;;;;;;;5030495;28;20444;-65
2022/03/08 01:03:05;;;;;;;28.45;17.13;;;;;;;;;;5033596;28;20033;-64
2022/03/08 01:05:31;;;;;;;31.38;17.25;;;;;;;;;;5034973;28;20032;-64
2022/03/08 01:07:58;;;;;;;25.98;17.50;;;;;;;;;;5030819;28;20116;-64
2022/03/08 01:10:25;;;;;;;25.05;16.30;;;;;;;;;;5037239;28;20033;-64
2022/03/08 01:12:52;;;;;;;23.52;14.80;;;;;;;;;;5036669;28;20128;-64
2022/03/08 01:15:20;;;;;;;29.23;16.13;;;;;;;;;;5030484;28;20045;-64
2022/03/08 01:17:47;;;;;;;30.00;16.05;;;;;;;;;;5035002;28;20040;-64
2022/03/08 01:20:13;;;;;;;27.58;15.45;;;;;;;;;;5042133;28;20045;-64
2022/03/08 01:22:39;;;;;;;27.08;16.27;;;;;;;;;;5032090;28;20079;-64
2022/03/08 01:25:07;;;;;;;24.63;15.45;;;;;;;;;;5032715;28;20104;-64
2022/03/08 01:27:33;;;;;;;24.98;15.27;;;;;;;;;;5031814;28;20045;-65
2022/03/08 01:29:59;;;;;;;23.85;14.60;;;;;;;;;;5034582;28;20033;-64
2022/03/08 01:32:24;;;;;;;23.92;15.43;;;;;;;;;;5031324;28;20398;-64
2022/03/08 01:34:50;;;;;;;26.83;14.98;;;;;;;;;;5038149;28;20409;-64
2022/03/08 01:37:16;;;;;;;23.02;14.63;;;;;;;;;;5034700;28;20034;-64
2022/03/08 01:39:42;;;;;;;29.27;15.90;;;;;;;;;;5037488;28;20505;-64
2022/03/08 01:42:12;;;;;;;22.75;14.10;;;;;;;;;;5039088;28;20104;-65
2022/03/08 01:44:45;;;;;;;24.40;14.88;;;;;;;;;;5036364;28;20034;-64
2022/03/08 01:47:17;;;;;;;23.40;14.88;;;;;;;;;;5039714;28;20033;-64
2022/03/08 01:49:43;;;;;;;24.77;14.85;;;;;;;;;;5039347;28;20029;-64
2022/03/08 01:52:09;;;;;;;24.40;14.80;;;;;;;;;;5036080;28;20384;-65
2022/03/08 01:54:35;;;;;;;31.15;15.68;;;;;;;;;;5035099;28;20470;-65
2022/03/08 01:57:02;;;;;;;22.77;15.30;;;;;;;;;;5035624;28;20025;-64
2022/03/08 01:59:28;;;;;;;21.60;14.75;;;;;;;;;;5035322;28;20111;-65
2022/03/08 02:01:54;;;;;;;26.00;15.27;;;;;;;;;;5033902;28;20109;-64
2022/03/08 02:04:20;;;;;;;24.15;15.20;;;;;;;;;;5033756;28;20390;-64
2022/03/08 02:06:46;;;;;;;25.67;15.02;;;;;;;;;;5036162;28;20037;-64
2022/03/08 02:09:12;;;;;;;22.38;14.25;;;;;;;;;;5036896;28;20034;-64
2022/03/08 02:11:39;;;;;;;22.40;14.35;;;;;;;;;;5035385;28;20070;-64
2022/03/08 02:14:05;;;;;;;21.73;14.95;;;;;;;;;;5034795;28;20033;-64
2022/03/08 02:16:32;;;;;;;26.80;14.43;;;;;;;;;;5033019;28;20045;-64
2022/03/08 02:18:58;;;;;;;24.65;14.05;;;;;;;;;;5035486;28;20049;-63
2022/03/08 02:21:23;;;;;;;26.40;14.07;;;;;;;;;;5035448;28;20042;-64
2022/03/08 02:23:49;;;;;;;21.98;13.75;;;;;;;;;;5035734;28;20521;-64
2022/03/08 02:26:15;;;;;;;23.65;14.07;;;;;;;;;;5039398;28;20175;-65
2022/03/08 02:28:42;;;;;;;20.33;13.50;;;;;;;;;;5041530;28;20036;-64
2022/03/08 02:31:07;;;;;;;23.17;14.95;;;;;;;;;;5037550;28;20547;-64
2022/03/08 02:33:33;;;;;;;20.42;13.52;;;;;;;;;;5039565;28;20409;-64
2022/03/08 02:35:59;;;;;;;20.60;13.38;;;;;;;;;;5038687;28;20044;-64
2022/03/08 02:38:25;;;;;;;21.95;13.98;;;;;;;;;;5035953;28;20037;-64
2022/03/08 02:40:51;;;;;;;26.20;14.90;;;;;;;;;;5034424;28;20036;-64
2022/03/08 02:43:18;;;;;;;21.42;13.25;;;;;;;;;;5039668;28;20040;-64
2022/03/08 02:45:44;;;;;;;21.17;13.00;;;;;;;;;;5036994;28;20045;-64
2022/03/08 02:48:10;;;;;;;24.38;13.68;;;;;;;;;;5034804;28;20033;-64
2022/03/08 02:50:36;;;;;;;20.13;13.73;;;;;;;;;;5038733;28;20120;-64
2022/03/08 02:53:02;;;;;;;24.15;13.43;;;;;;;;;;5033859;28;20113;-63
2022/03/08 02:55:32;;;;;;;22.67;13.68;;;;;;;;;;5033195;28;20037;-64
2022/03/08 02:57:58;;;;;;;25.85;13.65;;;;;;;;;;5038739;28;20051;-64
2022/03/08 03:00:26;;;;;;;25.33;13.25;;;;;;;;;;5034886;28;20033;-64
2022/03/08 03:02:53;;;;;;;23.90;13.73;;;;;;;;;;5039798;28;20114;-64
2022/03/08 03:05:19;;;;;;;19.83;12.38;;;;;;;;;;5033289;28;20034;-64
2022/03/08 03:07:44;;;;;;;20.20;12.45;;;;;;;;;;5032749;28;20021;-63
2022/03/08 03:10:13;;;;;;;19.48;13.02;;;;;;;;;;5037171;28;20033;-64
2022/03/08 03:12:39;;;;;;;19.85;12.63;;;;;;;;;;5034482;28;20069;-64
2022/03/08 03:15:07;;;;;;;21.08;13.88;;;;;;;;;;5038379;28;20508;-64
2022/03/08 03:17:33;;;;;;;22.40;13.80;;;;;;;;;;5036377;28;20040;-64
2022/03/08 03:19:59;;;;;;;18.80;13.02;;;;;;;;;;5039810;28;20029;-64
2022/03/08 03:22:25;;;;;;;20.83;13.43;;;;;;;;;;5040949;28;20425;-64
2022/03/08 03:24:51;;;;;;;24.38;14.35;;;;;;;;;;5033692;28;20052;-64
2022/03/08 03:27:16;;;;;;;21.27;13.48;;;;;;;;;;5030862;28;20037;-64
2022/03/08 03:29:42;;;;;;;21.23;13.75;;;;;;;;;;5038741;28;20032;-64
2022/03/08 03:32:08;;;;;;;20.95;14.45;;;;;;;;;;5030527;28;20474;-65
2022/03/08 03:34:34;;;;;;;23.40;15.15;;;;;;;;;;5034382;28;20106;-64
2022/03/08 03:36:59;;;;;;;22.23;14.57;;;;;;;;;;5037620;28;20037;-64
2022/03/08 03:39:25;;;;;;;22.08;14.25;;;;;;;;;;5032966;28;20936;-65
2022/03/08 03:41:51;;;;;;;27.92;14.55;;;;;;;;;;5037168;28;20051;-64
2022/03/08 03:44:17;;;;;;;25.08;14.75;;;;;;;;;;5041327;28;20150;-62
2022/03/08 03:46:42;;;;;;;23.52;14.82;;;;;;;;;;5034269;28;20104;-64
2022/03/08 03:49:08;;;;;;;23.15;13.93;;;;;;;;;;5039940;28;20364;-64
2022/03/08 03:51:34;;;;;;;21.85;13.57;;;;;;;;;;5035907;28;20033;-64
2022/03/08 03:54:00;;;;;;;25.45;14.38;;;;;;;;;;5038426;28;20037;-64
2022/03/08 03:56:25;;;;;;;22.52;13.63;;;;;;;;;;5034253;28;20422;-64
2022/03/08 03:58:52;;;;;;;25.52;13.45;;;;;;;;;;5037737;28;20486;-65
2022/03/08 04:01:18;;;;;;;19.85;13.57;;;;;;;;;;5032704;28;20029;-64
2022/03/08 04:03:43;;;;;;;21.55;13.30;;;;;;;;;;5037656;28;20037;-64
2022/03/08 04:06:09;;;;;;;17.67;12.32;;;;;;;;;;5030876;28;20041;-64
2022/03/08 04:08:35;;;;;;;19.50;12.98;;;;;;;;;;5034171;28;20493;-64
2022/03/08 04:11:00;;;;;;;19.25;12.88;;;;;;;;;;5033785;28;20043;-63
2022/03/08 04:13:26;;;;;;;20.23;12.57;;;;;;;;;;5029787;28;20382;-64
2022/03/08 04:15:54;;;;;;;20.83;13.68;;;;;;;;;;5033842;28;20192;-64
2022/03/08 04:18:20;;;;;;;20.65;12.77;;;;;;;;;;5033679;28;20490;-64
2022/03/08 04:20:46;;;;;;;21.05;13.15;;;;;;;;;;5032659;28;20032;-64
2022/03/08 04:23:12;;;;;;;21.40;13.63;;;;;;;;;;5034629;28;20477;-63
2022/03/08 04:25:38;;;;;;;23.33;13.18;;;;;;;;;;5034657;28;20393;-63
2022/03/08 04:28:05;;;;;;;22.70;13.65;;;;;;;;;;5037562;28;20029;-64
2022/03/08 04:30:30;;;;;;;24.55;13.63;;;;;;;;;;5036733;28;20048;-64
2022/03/08 04:32:56;;;;;;;21.20;12.93;;;;;;;;;;5033224;28;20030;-64
2022/03/08 04:35:22;;;;;;;20.13;13.02;;;;;;;;;;5032704;28;20030;-64
2022/03/08 04:37:49;;;;;;;22.20;13.05;;;;;;;;;;5030703;28;20091;-64
2022/03/08 04:40:15;;;;;;;23.38;12.82;;;;;;;;;;5029578;28;20041;-64
2022/03/08 04:42:42;;;;;;;17.27;12.02;;;;;;;;;;5039499;28;20043;-64
2022/03/08 04:45:10;;;;;;;21.83;13.20;;;;;;;;;;5029821;28;20525;-65
2022/03/08 04:47:37;;;;;;;20.38;12.43;;;;;;;;;;5031475;28;20037;-64
2022/03/08 04:50:07;;;;;;;19.65;12.90;;;;;;;;;;5028503;28;20401;-63
2022/03/08 04:52:33;;;;;;;21.90;12.30;;;;;;;;;;5031069;28;20029;-63
2022/03/08 04:54:59;;;;;;;20.77;13.13;;;;;;;;;;5033436;28;20033;-63
2022/03/08 04:57:25;;;;;;;21.65;13.90;;;;;;;;;;5034233;28;20494;-63
2022/03/08 04:59:51;;;;;;;21.50;13.18;;;;;;;;;;5033519;28;20029;-63
2022/03/08 05:02:17;;;;;;;19.27;12.20;;;;;;;;;;5032865;28;20043;-63
2022/03/08 05:04:42;;;;;;;22.63;12.57;;;;;;;;;;5031914;28;20040;-64
2022/03/08 05:07:08;;;;;;;18.73;12.10;;;;;;;;;;5038346;28;20052;-63
2022/03/08 05:09:34;;;;;;;21.02;12.73;;;;;;;;;;5037915;28;20026;-64
2022/03/08 05:12:00;;;;;;;19.95;12.82;;;;;;;;;;5037605;28;20044;-63
2022/03/08 05:14:25;;;;;;;20.08;12.85;;;;;;;;;;5036194;28;20051;-63
2022/03/08 05:16:52;;;;;;;20.85;12.93;;;;;;;;;;5035753;28;20032;-63
2022/03/08 05:19:18;;;;;;;17.38;11.70;;;;;;;;;;5036818;28;20033;-63
2022/03/08 05:21:44;;;;;;;21.30;12.32;;;;;;;;;;5043199;28;20043;-63
2022/03/08 05:24:09;;;;;;;17.65;11.90;;;;;;;;;;5038246;28;20029;-63
2022/03/08 05:26:37;;;;;;;19.50;12.30;;;;;;;;;;5033943;28;20077;-63
2022/03/08 05:29:07;;;;;;;18.58;11.55;;;;;;;;;;5036031;28;20497;-63
2022/03/08 05:31:33;;;;;;;23.00;11.57;;;;;;;;;;5037543;28;20121;-63
2022/03/08 05:33:59;;;;;;;21.83;12.75;;;;;;;;;;5039090;28;20029;-64
2022/03/08 05:36:25;;;;;;;22.63;12.82;;;;;;;;;;5041580;28;20610;-63
2022/03/08 05:38:51;;;;;;;18.60;12.02;;;;;;;;;;5036799;28;20109;-63
2022/03/08 05:41:17;;;;;;;18.98;12.00;;;;;;;;;;5034574;28;20108;-63
2022/03/08 05:43:44;;;;;;;17.75;10.63;;;;;;;;;;5036869;28;20032;-63
2022/03/08 05:46:09;;;;;;;15.88;11.05;;;;;;;;;;5040044;28;20483;-63
2022/03/08 05:48:35;;;;;;;18.98;11.57;;;;;;;;;;5035060;28;20231;-63
2022/03/08 05:51:01;;;;;;;17.88;11.27;;;;;;;;;;5036030;28;20025;-63
2022/03/08 05:53:27;;;;;;;20.25;10.38;;;;;;;;;;5040600;28;20040;-63
2022/03/08 05:55:52;;;;;;;21.25;11.88;;;;;;;;;;5036137;28;20029;-63
2022/03/08 05:58:18;;;;;;;23.60;11.38;;;;;;;;;;5032595;28;20504;-63
2022/03/08 06:00:44;;;;;;;17.13;11.07;;;;;;;;;;5041654;28;20079;-63
2022/03/08 06:03:10;;;;;;;19.75;11.68;;;;;;;;;;5039516;28;20045;-63
2022/03/08 06:05:36;;;;;;;17.02;11.23;;;;;;;;;;5038802;28;20033;-63
2022/03/08 06:08:03;;;;;;;18.65;10.93;;;;;;;;;;5038953;28;20033;-63
2022/03/08 06:10:29;;;;;;;21.05;12.18;;;;;;;;;;5032644;28;20033;-63
2022/03/08 06:12:54;;;;;;;17.05;11.38;;;;;;;;;;5037313;28;20033;-63
2022/03/08 06:15:20;;;;;;;16.65;10.65;;;;;;;;;;5034879;28;20040;-64
2022/03/08 06:17:46;;;;;;;18.58;11.45;;;;;;;;;;5034674;28;20145;-64
2022/03/08 06:20:12;;;;;;;17.73;11.35;;;;;;;;;;5035598;28;20020;-64
2022/03/08 06:22:39;;;;;;;19.10;11.40;;;;;;;;;;5039864;28;20091;-63
2022/03/08 06:25:05;;;;;;;19.70;10.95;;;;;;;;;;5035606;28;21129;-64
2022/03/08 06:27:31;;;;;;;18.33;11.77;;;;;;;;;;5039569;28;20030;-64
2022/03/08 06:29:57;;;;;;;16.55;11.75;;;;;;;;;;5040226;28;20028;-63
2022/03/08 06:32:22;;;;;;;20.15;11.15;;;;;;;;;;5031367;28;20386;-63
2022/03/08 06:34:51;;;;;;;18.08;10.40;;;;;;;;;;5032337;28;20128;-64
2022/03/08 06:37:18;;;;;;;14.90;10.95;;;;;;;;;;5037929;28;20060;-64
2022/03/08 06:39:43;;;;;;;20.77;11.65;;;;;;;;;;5037672;28;20025;-63
2022/03/08 06:42:09;;;;;;;18.10;10.57;;;;;;;;;;5040320;28;20029;-63
2022/03/08 06:44:38;;;;;;;17.55;10.73;;;;;;;;;;5035424;28;20025;-63
2022/03/08 06:47:06;;;;;;;20.10;10.52;;;;;;;;;;5037701;28;20021;-63
2022/03/08 06:49:33;;;;;;;20.95;11.73;;;;;;;;;;5043577;28;20029;-64
2022/03/08 06:51:59;;;;;;;17.77;10.82;;;;;;;;;;5039963;28;20025;-63
2022/03/08 06:54:24;;;;;;;29.77;16.95;;;;;;;;;;5037711;28;20040;-63
2022/03/08 06:56:50;;;;;;;31.25;16.33;;;;;;;;;;5039558;28;20117;-63
2022/03/08 06:59:16;;;;;;;21.13;13.82;;;;;;;;;;5031880;28;20060;-63
2022/03/08 07:01:42;;;;;;;23.83;15.63;;;;;;;;;;5031755;28;20029;-63
2022/03/08 07:04:08;;;;;;;21.67;13.85;;;;;;;;;;5036936;28;20064;-63
2022/03/08 07:06:33;;;;;;;22.00;12.20;;;;;;;;;;5037644;28;20080;-64
2022/03/08 07:08:59;;;;;;;28.08;16.08;;;;;;;;;;5036915;28;20102;-63
2022/03/08 07:11:25;;;;;;;23.80;12.40;;;;;;;;;;5031952;28;20040;-64
2022/03/08 07:13:50;;;;;;;23.80;12.57;;;;;;;;;;5032291;28;20060;-64
2022/03/08 07:16:16;;;;;;;15.82;11.13;;;;;;;;;;5040107;28;20030;-64
2022/03/08 07:18:42;;;;;;;22.55;11.95;;;;;;;;;;5037111;28;20029;-63
2022/03/08 07:21:08;;;;;;;15.68;10.25;;;;;;;;;;5034927;28;20040;-63
2022/03/08 07:23:34;;;;;;;21.98;11.55;;;;;;;;;;5035308;28;20033;-63
2022/03/08 07:25:59;;;;;;;16.80;11.23;;;;;;;;;;5039421;28;20045;-63
2022/03/08 07:28:25;;;;;;;19.08;11.75;;;;;;;;;;5031938;28;20029;-64
2022/03/08 07:30:50;;;;;;;17.95;12.60;;;;;;;;;;5034053;28;20429;-63
2022/03/08 07:33:17;;;;;;;22.88;11.23;;;;;;;;;;5034259;28;20036;-64
2022/03/08 07:35:42;;;;;;;17.58;11.02;;;;;;;;;;5032348;28;20037;-63
2022/03/08 07:38:08;;;;;;;27.50;15.13;;;;;;;;;;5033900;28;20508;-63
2022/03/08 07:40:34;;;;;;;13.50;9.82;;;;;;;;;;5036969;28;20040;-63
2022/03/08 07:43:02;;;;;;;17.77;10.45;;;;;;;;;;5032868;28;20021;-62
2022/03/08 07:45:29;;;;;;;16.02;9.52;;;;;;;;;;5031017;28;20383;-64
2022/03/08 07:47:55;;;;;;;16.65;9.65;;;;;;;;;;5037442;28;20029;-64
2022/03/08 07:50:22;;;;;;;23.13;11.15;;;;;;;;;;5031786;28;20372;-63
2022/03/08 07:52:49;;;;;;;17.67;9.68;;;;;;;;;;5039090;28;20108;-63
2022/03/08 07:55:14;;;;;;;12.07;8.63;;;;;;;;;;5032500;28;20545;-63
2022/03/08 07:57:40;;;;;;;16.38;9.90;;;;;;;;;;5034517;28;20163;-63
2022/03/08 08:00:07;;;;;;;16.02;9.57;;;;;;;;;;5034785;28;20390;-63
2022/03/08 08:02:33;;;;;;;18.05;12.18;;;;;;;;;;5033182;28;20052;-63
2022/03/08 08:04:59;;;;;;;14.85;9.50;;;;;;;;;;5038411;28;20477;-62
2022/03/08 08:07:25;;;;;;;12.73;9.45;;;;;;;;;;5031951;28;20061;-64
2022/03/08 08:09:51;;;;;;;18.20;10.98;;;;;;;;;;5042804;28;20062;-63
2022/03/08 08:12:16;;;;;;;16.65;10.02;;;;;;;;;;5033951;28;20040;-63
2022/03/08 08:14:42;;;;;;;16.08;8.90;;;;;;;;;;5035835;28;22028;-63
2022/03/08 08:17:08;;;;;;;16.65;10.85;;;;;;;;;;5030446;28;20059;-63
2022/03/08 08:19:33;;;;;;;24.92;9.45;;;;;;;;;;5031844;28;20410;-63
2022/03/08 08:21:59;;;;;;;19.45;9.50;;;;;;;;;;5032294;28;20083;-63
2022/03/08 08:24:25;;;;;;;16.80;10.40;;;;;;;;;;5039015;28;20055;-63
2022/03/08 08:26:50;;;;;;;19.85;9.55;;;;;;;;;;5033996;28;20390;-63
2022/03/08 08:29:17;;;;;;;18.17;9.95;;;;;;;;;;5031705;28;20065;-63
2022/03/08 08:31:43;;;;;;;15.63;9.07;;;;;;;;;;5031630;28;20067;-63
2022/03/08 08:34:08;;;;;;;16.55;8.73;;;;;;;;;;5034061;28;20061;-63
2022/03/08 08:36:34;;;;;;;14.63;9.15;;;;;;;;;;5035905;28;20421;-63
2022/03/08 08:39:00;;;;;;;15.20;9.60;;;;;;;;;;5034320;28;20501;-62
2022/03/08 08:41:25;;;;;;;16.05;10.13;;;;;;;;;;5034628;28;20032;-63
2022/03/08 08:43:51;;;;;;;15.35;9.43;;;;;;;;;;5031956;28;20030;-64
2022/03/08 08:46:17;;;;;;;16.48;10.23;;;;;;;;;;5035655;28;20061;-63
2022/03/08 08:48:43;;;;;;;15.63;9.52;;;;;;;;;;5045377;28;20118;-63
2022/03/08 08:51:08;;;;;;;13.18;9.38;;;;;;;;;;5039761;28;20164;-64
2022/03/08 08:53:34;;;;;;;12.40;8.63;;;;;;;;;;5036559;28;20025;-63
2022/03/08 08:56:00;;;;;;;16.00;10.52;;;;;;;;;;5046693;28;20039;-64
2022/03/08 08:58:26;;;;;;;15.90;9.18;;;;;;;;;;5034196;28;20628;-63
2022/03/08 09:00:52;;;;;;;14.88;8.57;;;;;;;;;;5035575;28;20068;-64
2022/03/08 09:03:18;;;;;;;15.02;9.00;;;;;;;;;;5038169;28;20440;-64
2022/03/08 09:05:45;;;;;;;16.13;9.18;;;;;;;;;;5037619;28;20033;-63
2022/03/08 09:08:12;;;;;;;14.50;8.45;;;;;;;;;;5036742;28;20040;-64
2022/03/08 09:10:37;;;;;;;12.07;8.70;;;;;;;;;;5032208;28;20025;-63
2022/03/08 09:13:05;;;;;;;14.85;8.43;;;;;;;;;;5047150;28;20499;-63
2022/03/08 09:15:31;;;;;;;15.38;9.85;;;;;;;;;;5038071;28;20080;-63
2022/03/08 09:17:57;;;;;;;18.00;8.85;;;;;;;;;;5033856;28;20026;-63
2022/03/08 09:20:25;;;;;;;15.00;8.60;;;;;;;;;;5035467;28;20132;-63
2022/03/08 09:22:54;;;;;;;17.88;8.40;;;;;;;;;;5039893;28;20406;-63
2022/03/08 09:25:20;;;;;;;13.85;8.02;;;;;;;;;;5037611;28;20099;-64
2022/03/08 09:27:46;;;;;;;14.05;8.65;;;;;;;;;;5037308;28;20445;-64
2022/03/08 09:30:12;;;;;;;15.27;9.25;;;;;;;;;;5042653;28;20025;-64
2022/03/08 09:32:38;;;;;;;15.32;8.63;;;;;;;;;;5035268;28;20028;-63
2022/03/08 09:35:04;;;;;;;12.80;8.20;;;;;;;;;;5037208;28;20376;-63
2022/03/08 09:37:30;;;;;;;16.77;8.25;;;;;;;;;;5034969;28;20116;-63
2022/03/08 09:39:56;;;;;;;11.68;8.25;;;;;;;;;;5039075;28;20143;-63
2022/03/08 09:42:22;;;;;;;20.40;8.63;;;;;;;;;;5039739;28;20534;-63
2022/03/08 09:44:48;;;;;;;14.18;8.20;;;;;;;;;;5040523;28;20029;-63
2022/03/08 09:47:18;;;;;;;16.17;8.77;;;;;;;;;;5034292;28;20033;-63
2022/03/08 09:49:44;;;;;;;22.45;8.32;;;;;;;;;;5038757;28;20061;-63
2022/03/08 09:52:11;;;;;;;11.82;7.57;;;;;;;;;;5039742;28;20025;-64
2022/03/08 09:54:37;;;;;;;10.10;6.28;;;;;;;;;;5031990;28;20528;-64
2022/03/08 09:57:13;;;;;;;10.05;6.40;;;;;;;;;;5030224;28;20028;-63
2022/03/08 09:59:39;;;;;;;12.63;6.03;;;;;;;;;;5040471;28;20078;-63
2022/03/08 10:02:05;;;;;;;10.90;7.10;;;;;;;;;;5038994;28;20100;-63
2022/03/08 10:04:31;;;;;;;10.23;7.05;;;;;;;;;;5034527;28;20112;-63
2022/03/08 10:06:57;;;;;;;8.48;6.93;;;;;;;;;;5039528;28;20032;-64
2022/03/08 10:09:24;;;;;;;9.00;7.07;;;;;;;;;;5038075;28;20090;-64
2022/03/08 10:11:55;;;;;;;9.32;6.85;;;;;;;;;;5035225;28;20052;-63
2022/03/08 10:14:38;;;;;;;13.15;7.07;;;;;;;;;;5036469;28;20061;-62
2022/03/08 10:17:28;;;;;;;9.20;6.40;;;;;;;;;;5034257;28;20036;-63
2022/03/08 10:19:54;;;;;;;11.43;6.60;;;;;;;;;;5032661;28;20025;-63
2022/03/08 10:22:30;;;;;;;13.90;6.70;;;;;;;;;;5035028;28;20078;-63
2022/03/08 10:25:29;;;;;;;13.15;6.40;;;;;;;;;;5036117;28;20061;-64
2022/03/08 10:27:55;;;;;;;10.77;5.82;;;;;;;;;;5002755;28;20042;-63
2022/03/08 10:30:23;;;;;;;10.50;5.93;;;;;;;;;;4997822;28;20151;-63
2022/03/08 10:32:49;;;;;;;9.30;6.43;;;;;;;;;;4992807;28;20038;-63
2022/03/08 10:35:37;;;;;;;10.30;6.13;;;;;;;;;;4998273;28;20040;-63
2022/03/08 10:38:08;;;;;;;9.55;6.55;;;;;;;;;;5002073;28;20073;-64
2022/03/08 10:40:35;;;;;;;11.98;7.10;;;;;;;;;;4999181;28;20034;-64
2022/03/08 10:43:14;;;;;;;10.68;6.50;;;;;;;;;;4999731;28;20128;-63
2022/03/08 10:45:43;;;;;;;12.07;6.60;;;;;;;;;;4998210;28;20125;-63
2022/03/08 10:48:09;;;;;;;7.30;6.15;;;;;;;;;;4996503;28;20030;-63
2022/03/08 10:50:37;;;;;;;9.50;6.55;;;;;;;;;;5000555;28;20052;-63
2022/03/08 10:53:05;;;;;;;7.10;5.85;;;;;;;;;;4998749;28;20096;-63
2022/03/08 10:55:36;;;;;;;7.43;5.95;;;;;;;;;;4999929;28;20546;-64
2022/03/08 10:58:07;;;;;;;6.75;5.53;;;;;;;;;;5005618;28;20175;-63
2022/03/08 11:00:39;;;;;;;9.23;6.03;;;;;;;;;;4998209;28;20095;-64
2022/03/08 11:03:06;;;;;;;;;;;;;;;;;;5011439;28;20139;-63
2022/03/08 11:05:54;;;;;;;9.25;5.80;;;;;;;;;;5034914;28;19967;-64
2022/03/08 11:08:21;;;;;;;10.40;6.32;;;;;;;;;;5035057;28;20111;-63
2022/03/08 11:10:47;;;;;;;7.10;5.97;;;;;;;;;;5034100;28;20485;-64
2022/03/08 11:13:15;;;;;;;15.00;6.82;;;;;;;;;;5035556;28;20044;-63
2022/03/08 11:15:45;;;;;;;14.45;6.43;;;;;;;;;;5035588;28;20116;-63
2022/03/08 11:18:13;;;;;;;9.77;6.35;;;;;;;;;;5036284;28;20025;-64
2022/03/08 11:20:44;;;;;;;9.60;6.18;;;;;;;;;;5034969;28;20394;-63
2022/03/08 11:23:09;;;;;;;7.65;6.18;;;;;;;;;;5035695;28;20033;-64
2022/03/08 11:25:38;;;;;;;7.68;6.32;;;;;;;;;;5028983;28;20057;-64
2022/03/08 11:28:05;;;;;;;8.18;5.85;;;;;;;;;;5041487;28;20029;-63
2022/03/08 11:30:35;;;;;;;7.82;6.28;;;;;;;;;;5034467;28;20040;-64
2022/03/08 11:33:19;;;;;;;7.93;5.97;;;;;;;;;;5033250;28;20030;-63
2022/03/08 11:36:18;;;;;;;6.55;6.03;;;;;;;;;;5031674;28;20037;-63
2022/03/08 11:39:18;;;;;;;8.05;6.30;;;;;;;;;;5028779;28;20108;-63
2022/03/08 11:41:47;;;;;;;6.40;5.60;;;;;;;;;;5036782;28;20021;-63
2022/03/08 11:44:39;;;;;;;8.90;6.60;;;;;;;;;;5032744;28;20037;-63
2022/03/08 11:47:14;;;;;;;14.57;6.90;;;;;;;;;;5034611;28;20068;-63
2022/03/08 11:49:42;;;;;;;10.88;8.38;;;;;;;;;;5031188;28;20708;-63
2022/03/08 11:52:16;;;;;;;11.68;7.60;;;;;;;;;;5029996;28;20030;-63
2022/03/08 11:54:50;;;;;;;9.07;6.88;;;;;;;;;;5034569;28;20390;-63
2022/03/08 11:57:51;;;;;;;11.05;6.88;;;;;;;;;;5033479;28;20029;-63
2022/03/08 12:00:19;;;;;;;11.90;8.00;;;;;;;;;;5032748;28;20033;-64
2022/03/08 12:02:53;;;;;;;11.60;8.55;;;;;;;;;;5033955;28;20037;-63
2022/03/08 12:05:38;;;;;;;14.27;8.15;;;;;;;;;;5035432;28;20512;-63
2022/03/08 12:08:29;;;;;;;9.35;7.60;;;;;;;;;;5034626;28;20524;-63
2022/03/08 12:11:00;;;;;;;11.90;7.73;;;;;;;;;;4993707;28;20041;-63
2022/03/08 12:13:26;;;;;;;14.35;7.85;;;;;;;;;;4999634;28;20069;-63
2022/03/08 12:16:10;;;;;;;9.45;6.72;;;;;;;;;;5003635;28;20077;-64
2022/03/08 12:18:48;;;;;;;14.00;7.00;;;;;;;;;;4996827;28;20026;-64
2022/03/08 12:21:16;;;;;;;10.07;7.10;;;;;;;;;;5000085;28;20042;-63
2022/03/08 12:23:49;;;;;;;9.98;6.63;;;;;;;;;;5001085;28;20486;-63
2022/03/08 12:26:48;;;;;;;10.77;7.03;;;;;;;;;;5002662;28;20485;-64
2022/03/08 12:29:20;;;;;;;10.48;7.07;;;;;;;;;;5002818;28;20129;-63
2022/03/08 12:31:58;;;;;;;9.63;6.72;;;;;;;;;;4999328;28;20419;-63
2022/03/08 12:34:45;;;;;;;9.77;7.82;;;;;;;;;;5003590;28;20041;-63
2022/03/08 12:37:20;;;;;;;9.65;7.00;;;;;;;;;;5001999;28;20092;-64
2022/03/08 12:40:01;;;;;;;13.55;6.82;;;;;;;;;;5003704;28;20045;-63
2022/03/08 12:42:31;;;;;;;;;;;;;;;;;;5002134;28;20490;-63
2022/03/08 12:45:24;;;;;;;9.40;7.22;;;;;;;;;;5001837;28;20004;-63
2022/03/08 12:48:05;;;;;;;8.07;6.57;;;;;;;;;;5015902;28;20041;-63
2022/03/08 12:50:38;;;;;;;7.50;6.05;;;;;;;;;;5033487;28;20037;-63
2022/03/08 12:53:09;;;;;;;12.85;7.03;;;;;;;;;;5038378;28;20030;-63
2022/03/08 12:55:41;;;;;;;9.02;5.20;;;;;;;;;;5029636;28;20033;-63
2022/03/08 12:58:15;;;;;;;7.70;7.00;;;;;;;;;;5040027;28;20089;-63
2022/03/08 13:00:50;;;;;;;9.68;7.40;;;;;;;;;;5032966;28;20707;-63
2022/03/08 13:03:19;;;;;;;8.15;5.65;;;;;;;;;;5031860;28;20029;-63
2022/03/08 13:05:47;;;;;;;9.32;5.78;;;;;;;;;;5035467;28;20083;-64
2022/03/08 13:08:16;;;;;;;7.40;5.50;;;;;;;;;;5027700;28;20044;-64
2022/03/08 13:10:55;;;;;;;10.70;6.10;;;;;;;;;;5031607;28;20025;-63
2022/03/08 13:13:21;;;;;;;14.15;6.75;;;;;;;;;;5038636;28;20048;-64
2022/03/08 13:15:48;;;;;;;13.57;6.50;;;;;;;;;;5034552;28;20041;-63
2022/03/08 13:18:25;;;;;;;7.50;5.68;;;;;;;;;;5034108;28;20063;-63
2022/03/08 13:20:59;;;;;;;5.63;5.13;;;;;;;;;;5031711;28;20076;-63
2022/03/08 13:23:27;;;;;;;8.98;5.60;;;;;;;;;;5033280;28;20037;-63
2022/03/08 13:25:56;;;;;;;7.60;6.15;;;;;;;;;;5034417;28;20145;-63
2022/03/08 13:28:24;;;;;;;16.90;6.50;;;;;;;;;;5035710;28;20025;-63
2022/03/08 13:30:58;;;;;;;10.52;7.25;;;;;;;;;;5034565;28;20026;-63
2022/03/08 13:33:34;;;;;;;8.85;7.05;;;;;;;;;;5035013;28;20544;-64
2022/03/08 13:36:04;;;;;;;7.57;6.03;;;;;;;;;;5036273;28;20037;-63
2022/03/08 13:38:30;;;;;;;9.13;7.13;;;;;;;;;;5037280;28;20107;-63
2022/03/08 13:41:03;;;;;;;10.10;6.47;;;;;;;;;;5032990;28;20077;-63
2022/03/08 13:43:31;;;;;;;10.30;7.18;;;;;;;;;;5040768;28;20485;-63
2022/03/08 13:46:00;;;;;;;11.90;6.85;;;;;;;;;;5037001;28;20126;-63
2022/03/08 13:48:29;;;;;;;13.70;8.70;;;;;;;;;;5037113;28;20037;-63
2022/03/08 13:50:59;;;;;;;10.82;8.27;;;;;;;;;;5034986;28;20499;-63
2022/03/08 13:53:25;;;;;;;12.30;6.20;;;;;;;;;;5035765;28;20021;-63
2022/03/08 13:55:55;;;;;;;7.07;5.82;;;;;;;;;;5032165;28;20501;-63
2022/03/08 13:58:22;;;;;;;12.88;6.20;;;;;;;;;;5037223;28;20029;-63
2022/03/08 14:00:49;;;;;;;9.82;7.07;;;;;;;;;;5041013;28;20029;-63
2022/03/08 14:03:16;;;;;;;9.13;6.75;;;;;;;;;;5036236;28;20025;-63
2022/03/08 14:05:50;;;;;;;8.13;6.70;;;;;;;;;;5041024;28;20588;-63
2022/03/08 14:08:30;;;;;;;11.05;7.53;;;;;;;;;;5036143;28;20041;-63
2022/03/08 14:11:03;;;;;;;8.38;6.85;;;;;;;;;;5034323;28;20420;-63
2022/03/08 14:13:30;;;;;;;9.60;7.10;;;;;;;;;;5037331;28;20025;-63
2022/03/08 14:16:00;;;;;;;9.07;7.47;;;;;;;;;;5035725;28;20095;-63
2022/03/08 14:18:27;;;;;;;10.13;7.07;;;;;;;;;;5034492;28;20033;-62
2022/03/08 14:20:53;;;;;;;8.15;6.30;;;;;;;;;;5036050;28;20078;-63
2022/03/08 14:23:19;;;;;;;9.48;6.93;;;;;;;;;;5042711;28;20053;-63
2022/03/08 14:26:01;;;;;;;11.60;6.30;;;;;;;;;;5032908;28;20061;-63
2022/03/08 14:29:01;;;;;;;10.57;6.82;;;;;;;;;;5033956;28;20072;-63
2022/03/08 14:31:34;;;;;;;10.45;6.05;;;;;;;;;;5030578;28;20390;-63
2022/03/08 14:34:05;;;;;;;7.93;6.43;;;;;;;;;;5037776;28;20758;-64